sensor_id;sensor_type;location;lat;lon;timestamp;temperature;humidity
37300;DHT22;23184;51.902;12.836;2022-08-18T00:02:08;22.70;99.90
37300;DHT22;23184;51.902;12.836;2022-08-18T00:04:35;22.70;99.90
37300;DHT22;23184;51.902;12.836;2022-08-18T00:07:04;22.60;99.90
37300;DHT22;23184;51.902;12.836;2022-08-18T00:09:30;22.50;99.90
37300;DHT22;23184;51.902;12.836;2022-08-18T00:11:56;22.50;99.90
37300;DHT22;23184;51.902;12.836;2022-08-18T00:14:21;22.50;99.90
37300;DHT22;23184;51.902;12.836;2022-08-18T00:16:48;22.40;99.90
37300;DHT22;23184;51.902;12.836;2022-08-18T00:19:14;22.40;99.90
37300;DHT22;23184;51.902;12.836;2022-08-18T00:21:39;22.40;99.90
37300;DHT22;23184;51.902;12.836;2022-08-18T00:24:05;22.40;99.90
37300;DHT22;23184;51.902;12.836;2022-08-18T00:26:30;22.30;99.90
37300;DHT22;23184;51.902;12.836;2022-08-18T00:28:56;22.30;99.90
37300;DHT22;23184;51.902;12.836;2022-08-18T00:31:23;22.20;99.90
37300;DHT22;23184;51.902;12.836;2022-08-18T00:33:48;22.10;99.90
37300;DHT22;23184;51.902;12.836;2022-08-18T00:36:14;22.10;99.90
37300;DHT22;23184;51.902;12.836;2022-08-18T00:38:40;22.00;99.90
37300;DHT22;23184;51.902;12.836;2022-08-18T00:41:06;22.00;99.90
37300;DHT22;23184;51.902;12.836;2022-08-18T00:43:47;21.90;99.90
37300;DHT22;23184;51.902;12.836;2022-08-18T00:46:19;21.80;99.90
37300;DHT22;23184;51.902;12.836;2022-08-18T00:48:45;21.80;99.90
37300;DHT22;23184;51.902;12.836;2022-08-18T00:51:23;21.80;99.90
37300;DHT22;23184;51.902;12.836;2022-08-18T00:54:07;21.80;99.90
37300;DHT22;23184;51.902;12.836;2022-08-18T00:56:39;21.70;99.90
37300;DHT22;23184;51.902;12.836;2022-08-18T01:02:00;21.60;99.90
37300;DHT22;23184;51.902;12.836;2022-08-18T01:04:39;21.60;99.90
37300;DHT22;23184;51.902;12.836;2022-08-18T01:07:12;21.60;99.90
37300;DHT22;23184;51.902;12.836;2022-08-18T01:09:39;21.60;99.90
37300;DHT22;23184;51.902;12.836;2022-08-18T01:12:05;21.60;99.90
37300;DHT22;23184;51.902;12.836;2022-08-18T01:14:31;21.50;99.90
37300;DHT22;23184;51.902;12.836;2022-08-18T01:16:56;21.50;99.90
37300;DHT22;23184;51.902;12.836;2022-08-18T01:19:40;21.50;99.90
37300;DHT22;23184;51.902;12.836;2022-08-18T01:22:30;21.40;99.90
37300;DHT22;23184;51.902;12.836;2022-08-18T01:25:00;21.40;99.90
37300;DHT22;23184;51.902;12.836;2022-08-18T01:27:45;21.30;99.90
37300;DHT22;23184;51.902;12.836;2022-08-18T01:30:13;21.30;99.90
37300;DHT22;23184;51.902;12.836;2022-08-18T01:32:40;21.20;99.90
37300;DHT22;23184;51.902;12.836;2022-08-18T01:35:08;21.20;99.90
37300;DHT22;23184;51.902;12.836;2022-08-18T01:37:35;21.10;99.90
37300;DHT22;23184;51.902;12.836;2022-08-18T01:40:00;21.10;99.90
37300;DHT22;23184;51.902;12.836;2022-08-18T01:42:30;21.00;99.90
37300;DHT22;23184;51.902;12.836;2022-08-18T01:48:17;20.90;99.90
37300;DHT22;23184;51.902;12.836;2022-08-18T01:50:43;20.90;99.90
37300;DHT22;23184;51.902;12.836;2022-08-18T01:53:10;20.90;99.90
37300;DHT22;23184;51.902;12.836;2022-08-18T01:55:37;20.90;99.90
37300;DHT22;23184;51.902;12.836;2022-08-18T01:58:03;20.90;99.90
37300;DHT22;23184;51.902;12.836;2022-08-18T02:00:31;20.90;99.90
37300;DHT22;23184;51.902;12.836;2022-08-18T02:02:57;20.90;99.90
37300;DHT22;23184;51.902;12.836;2022-08-18T02:05:42;20.90;99.90
37300;DHT22;23184;51.902;12.836;2022-08-18T02:08:09;20.90;99.90
37300;DHT22;23184;51.902;12.836;2022-08-18T02:10:37;20.80;99.90
37300;DHT22;23184;51.902;12.836;2022-08-18T02:13:03;20.70;99.90
37300;DHT22;23184;51.902;12.836;2022-08-18T02:15:29;20.50;99.90
37300;DHT22;23184;51.902;12.836;2022-08-18T02:17:54;20.50;99.90
37300;DHT22;23184;51.902;12.836;2022-08-18T02:20:20;20.50;99.90
37300;DHT22;23184;51.902;12.836;2022-08-18T02:22:46;20.50;99.90
37300;DHT22;23184;51.902;12.836;2022-08-18T02:25:13;20.50;99.90
37300;DHT22;23184;51.902;12.836;2022-08-18T02:27:39;20.50;99.90
37300;DHT22;23184;51.902;12.836;2022-08-18T02:30:08;20.40;99.90
37300;DHT22;23184;51.902;12.836;2022-08-18T02:32:34;20.40;99.90
37300;DHT22;23184;51.902;12.836;2022-08-18T02:35:00;20.30;99.90
37300;DHT22;23184;51.902;12.836;2022-08-18T02:37:26;20.30;99.90
37300;DHT22;23184;51.902;12.836;2022-08-18T02:39:51;20.30;99.90
37300;DHT22;23184;51.902;12.836;2022-08-18T02:42:17;20.30;99.90
37300;DHT22;23184;51.902;12.836;2022-08-18T02:44:43;20.30;99.90
37300;DHT22;23184;51.902;12.836;2022-08-18T02:47:09;20.30;99.90
37300;DHT22;23184;51.902;12.836;2022-08-18T02:49:35;20.30;99.90
37300;DHT22;23184;51.902;12.836;2022-08-18T02:52:01;20.30;99.90
37300;DHT22;23184;51.902;12.836;2022-08-18T02:54:27;20.30;99.90
37300;DHT22;23184;51.902;12.836;2022-08-18T02:56:52;20.30;99.90
37300;DHT22;23184;51.902;12.836;2022-08-18T02:59:21;20.30;99.90
37300;DHT22;23184;51.902;12.836;2022-08-18T03:01:50;20.20;99.90
37300;DHT22;23184;51.902;12.836;2022-08-18T03:04:20;20.20;99.90
37300;DHT22;23184;51.902;12.836;2022-08-18T03:06:46;20.10;99.90
37300;DHT22;23184;51.902;12.836;2022-08-18T03:09:14;20.10;99.90
37300;DHT22;23184;51.902;12.836;2022-08-18T03:11:40;20.00;99.90
37300;DHT22;23184;51.902;12.836;2022-08-18T03:14:07;20.00;99.90
37300;DHT22;23184;51.902;12.836;2022-08-18T03:16:33;19.90;99.90
37300;DHT22;23184;51.902;12.836;2022-08-18T03:19:00;19.90;99.90
37300;DHT22;23184;51.902;12.836;2022-08-18T03:21:27;19.90;99.90
37300;DHT22;23184;51.902;12.836;2022-08-18T03:23:54;19.90;99.90
37300;DHT22;23184;51.902;12.836;2022-08-18T03:26:21;19.90;99.90
37300;DHT22;23184;51.902;12.836;2022-08-18T03:28:49;19.90;99.90
37300;DHT22;23184;51.902;12.836;2022-08-18T03:31:16;19.90;99.90
37300;DHT22;23184;51.902;12.836;2022-08-18T03:33:43;19.80;99.90
37300;DHT22;23184;51.902;12.836;2022-08-18T03:36:13;19.70;99.90
37300;DHT22;23184;51.902;12.836;2022-08-18T03:38:40;19.70;99.90
37300;DHT22;23184;51.902;12.836;2022-08-18T03:41:08;19.70;99.90
37300;DHT22;23184;51.902;12.836;2022-08-18T03:43:34;19.70;99.90
37300;DHT22;23184;51.902;12.836;2022-08-18T03:46:05;19.70;99.90
37300;DHT22;23184;51.902;12.836;2022-08-18T03:48:31;19.70;99.90
37300;DHT22;23184;51.902;12.836;2022-08-18T03:51:09;19.70;99.90
37300;DHT22;23184;51.902;12.836;2022-08-18T03:53:36;19.80;99.90
37300;DHT22;23184;51.902;12.836;2022-08-18T03:56:07;19.80;99.90
37300;DHT22;23184;51.902;12.836;2022-08-18T03:58:34;19.80;99.90
37300;DHT22;23184;51.902;12.836;2022-08-18T04:01:01;19.90;99.90
37300;DHT22;23184;51.902;12.836;2022-08-18T04:03:28;19.90;99.90
37300;DHT22;23184;51.902;12.836;2022-08-18T04:05:53;19.90;99.90
37300;DHT22;23184;51.902;12.836;2022-08-18T04:08:19;19.90;99.90
37300;DHT22;23184;51.902;12.836;2022-08-18T04:10:44;19.90;99.90
37300;DHT22;23184;51.902;12.836;2022-08-18T04:13:09;19.70;99.90
37300;DHT22;23184;51.902;12.836;2022-08-18T04:15:36;19.50;99.90
37300;DHT22;23184;51.902;12.836;2022-08-18T04:18:01;19.30;99.90
37300;DHT22;23184;51.902;12.836;2022-08-18T04:20:29;19.10;99.90
37300;DHT22;23184;51.902;12.836;2022-08-18T04:22:57;19.10;99.90
37300;DHT22;23184;51.902;12.836;2022-08-18T04:25:23;19.10;99.90
37300;DHT22;23184;51.902;12.836;2022-08-18T04:27:48;18.90;99.90
37300;DHT22;23184;51.902;12.836;2022-08-18T04:30:14;19.00;99.90
37300;DHT22;23184;51.902;12.836;2022-08-18T04:32:39;19.00;99.90
37300;DHT22;23184;51.902;12.836;2022-08-18T04:35:06;18.80;99.90
37300;DHT22;23184;51.902;12.836;2022-08-18T04:37:31;18.70;99.90
37300;DHT22;23184;51.902;12.836;2022-08-18T04:39:57;18.80;99.90
37300;DHT22;23184;51.902;12.836;2022-08-18T04:42:24;18.90;99.90
37300;DHT22;23184;51.902;12.836;2022-08-18T04:44:49;19.00;99.90
37300;DHT22;23184;51.902;12.836;2022-08-18T04:47:16;19.10;99.90
37300;DHT22;23184;51.902;12.836;2022-08-18T04:49:42;19.30;99.90
37300;DHT22;23184;51.902;12.836;2022-08-18T04:52:09;19.40;99.90
37300;DHT22;23184;51.902;12.836;2022-08-18T04:54:54;19.50;99.90
37300;DHT22;23184;51.902;12.836;2022-08-18T04:57:20;19.60;99.90
37300;DHT22;23184;51.902;12.836;2022-08-18T04:59:49;19.60;99.90
37300;DHT22;23184;51.902;12.836;2022-08-18T05:02:16;19.70;99.90
37300;DHT22;23184;51.902;12.836;2022-08-18T05:04:43;19.80;99.90
37300;DHT22;23184;51.902;12.836;2022-08-18T05:07:13;19.80;99.90
37300;DHT22;23184;51.902;12.836;2022-08-18T05:09:39;19.90;99.90
37300;DHT22;23184;51.902;12.836;2022-08-18T05:12:07;20.00;99.90
37300;DHT22;23184;51.902;12.836;2022-08-18T05:14:33;20.10;99.90
37300;DHT22;23184;51.902;12.836;2022-08-18T05:17:01;20.20;99.90
37300;DHT22;23184;51.902;12.836;2022-08-18T05:19:27;20.30;99.90
37300;DHT22;23184;51.902;12.836;2022-08-18T05:21:54;20.40;99.90
37300;DHT22;23184;51.902;12.836;2022-08-18T05:24:20;20.40;99.90
37300;DHT22;23184;51.902;12.836;2022-08-18T05:26:48;20.50;99.90
37300;DHT22;23184;51.902;12.836;2022-08-18T05:29:14;20.50;99.90
37300;DHT22;23184;51.902;12.836;2022-08-18T05:31:40;20.60;99.90
37300;DHT22;23184;51.902;12.836;2022-08-18T05:34:06;20.70;99.90
37300;DHT22;23184;51.902;12.836;2022-08-18T05:40:06;20.90;99.90
37300;DHT22;23184;51.902;12.836;2022-08-18T05:42:37;21.00;99.90
37300;DHT22;23184;51.902;12.836;2022-08-18T05:45:09;21.10;99.90
37300;DHT22;23184;51.902;12.836;2022-08-18T05:47:35;21.30;99.90
37300;DHT22;23184;51.902;12.836;2022-08-18T05:50:12;21.40;99.90
37300;DHT22;23184;51.902;12.836;2022-08-18T05:53:04;21.60;99.90
37300;DHT22;23184;51.902;12.836;2022-08-18T05:55:37;21.70;99.90
37300;DHT22;23184;51.902;12.836;2022-08-18T05:58:44;21.90;99.90
37300;DHT22;23184;51.902;12.836;2022-08-18T06:01:21;22.10;99.90
37300;DHT22;23184;51.902;12.836;2022-08-18T06:03:52;22.20;99.90
37300;DHT22;23184;51.902;12.836;2022-08-18T06:06:26;22.30;99.90
37300;DHT22;23184;51.902;12.836;2022-08-18T06:11:35;22.70;99.90
37300;DHT22;23184;51.902;12.836;2022-08-18T06:14:01;22.70;99.90
37300;DHT22;23184;51.902;12.836;2022-08-18T06:19:51;22.90;99.90
37300;DHT22;23184;51.902;12.836;2022-08-18T06:25:20;23.20;99.90
37300;DHT22;23184;51.902;12.836;2022-08-18T06:28:10;23.40;99.90
37300;DHT22;23184;51.902;12.836;2022-08-18T06:33:21;23.70;99.90
37300;DHT22;23184;51.902;12.836;2022-08-18T06:36:01;23.90;99.90
37300;DHT22;23184;51.902;12.836;2022-08-18T06:43:35;24.60;99.90
37300;DHT22;23184;51.902;12.836;2022-08-18T06:46:08;24.80;99.90
37300;DHT22;23184;51.902;12.836;2022-08-18T06:51:18;25.10;99.90
37300;DHT22;23184;51.902;12.836;2022-08-18T06:54:04;25.20;99.90
37300;DHT22;23184;51.902;12.836;2022-08-18T06:59:27;25.50;99.90
37300;DHT22;23184;51.902;12.836;2022-08-18T07:02:24;25.60;99.90
37300;DHT22;23184;51.902;12.836;2022-08-18T07:05:01;25.60;99.90
37300;DHT22;23184;51.902;12.836;2022-08-18T07:07:38;25.70;99.90
37300;DHT22;23184;51.902;12.836;2022-08-18T07:12:38;26.00;99.90
37300;DHT22;23184;51.902;12.836;2022-08-18T07:15:04;26.10;99.90
37300;DHT22;23184;51.902;12.836;2022-08-18T07:17:35;26.20;99.90
37300;DHT22;23184;51.902;12.836;2022-08-18T07:20:18;26.40;99.90
37300;DHT22;23184;51.902;12.836;2022-08-18T07:23:01;26.40;99.90
37300;DHT22;23184;51.902;12.836;2022-08-18T07:25:40;26.70;99.90
37300;DHT22;23184;51.902;12.836;2022-08-18T07:28:06;26.70;99.90
37300;DHT22;23184;51.902;12.836;2022-08-18T07:30:36;26.70;99.90
37300;DHT22;23184;51.902;12.836;2022-08-18T07:33:13;26.70;99.90
37300;DHT22;23184;51.902;12.836;2022-08-18T07:35:48;26.70;99.90
37300;DHT22;23184;51.902;12.836;2022-08-18T07:38:21;26.80;99.90
37300;DHT22;23184;51.902;12.836;2022-08-18T07:40:55;26.80;99.90
37300;DHT22;23184;51.902;12.836;2022-08-18T07:43:38;26.80;99.90
37300;DHT22;23184;51.902;12.836;2022-08-18T07:46:20;26.90;99.90
37300;DHT22;23184;51.902;12.836;2022-08-18T07:48:47;27.10;99.90
37300;DHT22;23184;51.902;12.836;2022-08-18T07:57:20;27.40;99.90
37300;DHT22;23184;51.902;12.836;2022-08-18T08:00:13;27.60;99.90
37300;DHT22;23184;51.902;12.836;2022-08-18T08:02:55;27.80;99.90
37300;DHT22;23184;51.902;12.836;2022-08-18T08:05:48;28.20;99.90
37300;DHT22;23184;51.902;12.836;2022-08-18T08:08:27;28.60;99.90
37300;DHT22;23184;51.902;12.836;2022-08-18T08:10:58;29.10;99.90
37300;DHT22;23184;51.902;12.836;2022-08-18T08:13:36;29.80;99.90
37300;DHT22;23184;51.902;12.836;2022-08-18T08:16:20;30.60;99.90
37300;DHT22;23184;51.902;12.836;2022-08-18T08:19:02;31.50;99.90
37300;DHT22;23184;51.902;12.836;2022-08-18T08:21:37;32.00;99.90
37300;DHT22;23184;51.902;12.836;2022-08-18T08:24:34;32.00;99.90
37300;DHT22;23184;51.902;12.836;2022-08-18T08:30:13;31.30;99.90
37300;DHT22;23184;51.902;12.836;2022-08-18T08:32:55;30.90;99.90
37300;DHT22;23184;51.902;12.836;2022-08-18T08:35:42;30.80;99.90
37300;DHT22;23184;51.902;12.836;2022-08-18T08:38:20;30.60;99.90
37300;DHT22;23184;51.902;12.836;2022-08-18T08:40:56;30.70;99.90
37300;DHT22;23184;51.902;12.836;2022-08-18T08:43:29;30.70;99.90
37300;DHT22;23184;51.902;12.836;2022-08-18T08:46:21;31.10;99.90
37300;DHT22;23184;51.902;12.836;2022-08-18T08:48:52;31.60;99.90
37300;DHT22;23184;51.902;12.836;2022-08-18T08:51:36;32.20;99.90
37300;DHT22;23184;51.902;12.836;2022-08-18T08:54:20;32.70;99.90
37300;DHT22;23184;51.902;12.836;2022-08-18T08:56:53;32.90;99.90
37300;DHT22;23184;51.902;12.836;2022-08-18T08:59:22;33.10;99.90
37300;DHT22;23184;51.902;12.836;2022-08-18T09:16:20;34.40;99.90
37300;DHT22;23184;51.902;12.836;2022-08-18T09:19:28;34.60;99.90
37300;DHT22;23184;51.902;12.836;2022-08-18T09:24:44;34.30;99.90
37300;DHT22;23184;51.902;12.836;2022-08-18T09:30:01;34.10;99.90
37300;DHT22;23184;51.902;12.836;2022-08-18T09:37:45;33.50;99.90
37300;DHT22;23184;51.902;12.836;2022-08-18T09:40:16;33.20;99.90
37300;DHT22;23184;51.902;12.836;2022-08-18T09:43:16;33.00;99.90
37300;DHT22;23184;51.902;12.836;2022-08-18T09:45:57;32.60;99.90
37300;DHT22;23184;51.902;12.836;2022-08-18T09:48:33;32.30;99.90
37300;DHT22;23184;51.902;12.836;2022-08-18T09:56:17;31.10;99.90
37300;DHT22;23184;51.902;12.836;2022-08-18T09:58:57;31.00;99.90
37300;DHT22;23184;51.902;12.836;2022-08-18T10:06:45;30.70;99.90
37300;DHT22;23184;51.902;12.836;2022-08-18T10:09:22;30.70;99.90
37300;DHT22;23184;51.902;12.836;2022-08-18T10:12:03;30.70;99.90
37300;DHT22;23184;51.902;12.836;2022-08-18T10:14:38;30.80;99.90
37300;DHT22;23184;51.902;12.836;2022-08-18T10:20:04;31.20;99.90
37300;DHT22;23184;51.902;12.836;2022-08-18T10:22:45;31.10;99.90
37300;DHT22;23184;51.902;12.836;2022-08-18T10:25:12;31.10;99.90
37300;DHT22;23184;51.902;12.836;2022-08-18T10:33:04;30.60;99.90
37300;DHT22;23184;51.902;12.836;2022-08-18T10:38:15;30.40;99.90
37300;DHT22;23184;51.902;12.836;2022-08-18T10:40:53;30.40;99.90
37300;DHT22;23184;51.902;12.836;2022-08-18T10:43:45;30.70;99.90
37300;DHT22;23184;51.902;12.836;2022-08-18T10:46:17;30.90;99.90
37300;DHT22;23184;51.902;12.836;2022-08-18T10:49:00;30.90;99.90
37300;DHT22;23184;51.902;12.836;2022-08-18T10:57:22;31.80;99.90
37300;DHT22;23184;51.902;12.836;2022-08-18T10:59:55;32.10;99.90
37300;DHT22;23184;51.902;12.836;2022-08-18T11:02:55;32.60;99.90
37300;DHT22;23184;51.902;12.836;2022-08-18T11:05:24;33.10;99.90
37300;DHT22;23184;51.902;12.836;2022-08-18T11:07:59;34.40;99.90
37300;DHT22;23184;51.902;12.836;2022-08-18T11:10:41;35.00;99.90
37300;DHT22;23184;51.902;12.836;2022-08-18T11:18:34;36.00;99.90
37300;DHT22;23184;51.902;12.836;2022-08-18T11:21:32;36.60;99.50
37300;DHT22;23184;51.902;12.836;2022-08-18T11:26:50;37.30;97.90
37300;DHT22;23184;51.902;12.836;2022-08-18T11:34:45;36.40;97.30
37300;DHT22;23184;51.902;12.836;2022-08-18T11:37:37;36.60;97.30
37300;DHT22;23184;51.902;12.836;2022-08-18T11:40:32;36.60;96.90
37300;DHT22;23184;51.902;12.836;2022-08-18T11:43:16;36.50;97.10
37300;DHT22;23184;51.902;12.836;2022-08-18T11:51:18;35.10;97.70
37300;DHT22;23184;51.902;12.836;2022-08-18T12:01:30;35.80;96.10
37300;DHT22;23184;51.902;12.836;2022-08-18T12:04:05;35.60;96.60
37300;DHT22;23184;51.902;12.836;2022-08-18T12:06:32;35.00;96.60
37300;DHT22;23184;51.902;12.836;2022-08-18T12:09:05;34.70;96.70
37300;DHT22;23184;51.902;12.836;2022-08-18T12:11:34;34.40;96.70
37300;DHT22;23184;51.902;12.836;2022-08-18T12:14:09;34.20;97.10
37300;DHT22;23184;51.902;12.836;2022-08-18T12:16:41;34.00;97.40
37300;DHT22;23184;51.902;12.836;2022-08-18T12:19:09;33.70;97.50
37300;DHT22;23184;51.902;12.836;2022-08-18T12:21:41;33.60;98.00
37300;DHT22;23184;51.902;12.836;2022-08-18T12:24:22;33.50;98.00
37300;DHT22;23184;51.902;12.836;2022-08-18T12:26:48;34.10;98.20
37300;DHT22;23184;51.902;12.836;2022-08-18T12:29:15;34.90;97.60
37300;DHT22;23184;51.902;12.836;2022-08-18T12:31:46;35.30;97.20
37300;DHT22;23184;51.902;12.836;2022-08-18T12:34:11;35.20;96.50
37300;DHT22;23184;51.902;12.836;2022-08-18T12:36:37;34.90;96.20
37300;DHT22;23184;51.902;12.836;2022-08-18T12:39:04;34.90;96.60
37300;DHT22;23184;51.902;12.836;2022-08-18T12:41:29;34.40;96.00
37300;DHT22;23184;51.902;12.836;2022-08-18T12:43:55;33.70;96.90
37300;DHT22;23184;51.902;12.836;2022-08-18T12:46:21;33.40;97.50
37300;DHT22;23184;51.902;12.836;2022-08-18T12:48:47;33.10;97.30
37300;DHT22;23184;51.902;12.836;2022-08-18T12:51:12;32.70;97.40
37300;DHT22;23184;51.902;12.836;2022-08-18T12:53:39;32.60;98.00
37300;DHT22;23184;51.902;12.836;2022-08-18T12:56:07;32.20;98.00
37300;DHT22;23184;51.902;12.836;2022-08-18T12:58:37;32.00;98.40
37300;DHT22;23184;51.902;12.836;2022-08-18T13:01:03;31.80;98.40
37300;DHT22;23184;51.902;12.836;2022-08-18T13:03:28;31.80;98.40
37300;DHT22;23184;51.902;12.836;2022-08-18T13:05:54;31.60;98.20
37300;DHT22;23184;51.902;12.836;2022-08-18T13:08:21;31.50;98.60
37300;DHT22;23184;51.902;12.836;2022-08-18T13:10:47;31.30;98.80
37300;DHT22;23184;51.902;12.836;2022-08-18T13:13:14;31.20;98.90
37300;DHT22;23184;51.902;12.836;2022-08-18T13:15:41;31.30;98.90
37300;DHT22;23184;51.902;12.836;2022-08-18T13:18:07;31.50;98.70
37300;DHT22;23184;51.902;12.836;2022-08-18T13:20:32;31.70;99.00
37300;DHT22;23184;51.902;12.836;2022-08-18T13:22:58;31.90;99.00
37300;DHT22;23184;51.902;12.836;2022-08-18T13:25:24;31.80;98.90
37300;DHT22;23184;51.902;12.836;2022-08-18T13:27:50;31.70;99.40
37300;DHT22;23184;51.902;12.836;2022-08-18T13:30:17;31.70;99.20
37300;DHT22;23184;51.902;12.836;2022-08-18T13:32:42;31.70;99.20
37300;DHT22;23184;51.902;12.836;2022-08-18T13:35:10;31.50;99.40
37300;DHT22;23184;51.902;12.836;2022-08-18T13:37:35;31.30;99.00
37300;DHT22;23184;51.902;12.836;2022-08-18T13:40:01;31.10;99.40
37300;DHT22;23184;51.902;12.836;2022-08-18T13:42:28;30.90;99.00
37300;DHT22;23184;51.902;12.836;2022-08-18T13:44:57;30.60;99.00
37300;DHT22;23184;51.902;12.836;2022-08-18T13:47:25;30.40;99.00
37300;DHT22;23184;51.902;12.836;2022-08-18T13:49:52;30.40;99.30
37300;DHT22;23184;51.902;12.836;2022-08-18T13:52:18;30.50;99.30
37300;DHT22;23184;51.902;12.836;2022-08-18T13:54:43;30.50;99.00
37300;DHT22;23184;51.902;12.836;2022-08-18T13:57:10;30.50;99.40
37300;DHT22;23184;51.902;12.836;2022-08-18T13:59:36;30.90;99.40
37300;DHT22;23184;51.902;12.836;2022-08-18T14:02:07;31.20;99.10
37300;DHT22;23184;51.902;12.836;2022-08-18T14:04:33;31.10;99.20
37300;DHT22;23184;51.902;12.836;2022-08-18T14:06:59;30.90;99.70
37300;DHT22;23184;51.902;12.836;2022-08-18T14:09:26;30.70;99.90
37300;DHT22;23184;51.902;12.836;2022-08-18T14:11:52;30.50;99.90
37300;DHT22;23184;51.902;12.836;2022-08-18T14:14:17;30.20;99.90
37300;DHT22;23184;51.902;12.836;2022-08-18T14:16:45;30.10;99.60
37300;DHT22;23184;51.902;12.836;2022-08-18T14:19:10;29.90;99.90
37300;DHT22;23184;51.902;12.836;2022-08-18T14:21:55;29.80;99.90
37300;DHT22;23184;51.902;12.836;2022-08-18T14:24:40;29.70;99.90
37300;DHT22;23184;51.902;12.836;2022-08-18T14:27:27;29.60;99.90
37300;DHT22;23184;51.902;12.836;2022-08-18T14:29:57;29.50;99.90
37300;DHT22;23184;51.902;12.836;2022-08-18T14:32:24;29.40;99.90
37300;DHT22;23184;51.902;12.836;2022-08-18T14:34:55;29.30;99.90
37300;DHT22;23184;51.902;12.836;2022-08-18T14:37:21;29.10;99.90
37300;DHT22;23184;51.902;12.836;2022-08-18T14:39:46;29.00;99.90
37300;DHT22;23184;51.902;12.836;2022-08-18T14:42:14;28.80;99.90
37300;DHT22;23184;51.902;12.836;2022-08-18T14:44:40;28.60;99.90
37300;DHT22;23184;51.902;12.836;2022-08-18T14:47:05;28.30;99.90
37300;DHT22;23184;51.902;12.836;2022-08-18T14:49:31;28.10;99.90
37300;DHT22;23184;51.902;12.836;2022-08-18T14:51:58;28.00;99.90
37300;DHT22;23184;51.902;12.836;2022-08-18T14:54:24;27.60;99.90
37300;DHT22;23184;51.902;12.836;2022-08-18T14:56:49;27.40;99.90
37300;DHT22;23184;51.902;12.836;2022-08-18T14:59:15;27.20;99.90
37300;DHT22;23184;51.902;12.836;2022-08-18T15:01:41;27.10;99.90
37300;DHT22;23184;51.902;12.836;2022-08-18T15:04:07;27.10;99.90
37300;DHT22;23184;51.902;12.836;2022-08-18T15:06:34;27.10;99.90
37300;DHT22;23184;51.902;12.836;2022-08-18T15:09:00;27.10;99.90
37300;DHT22;23184;51.902;12.836;2022-08-18T15:11:25;27.00;99.90
37300;DHT22;23184;51.902;12.836;2022-08-18T15:13:51;27.00;99.90
37300;DHT22;23184;51.902;12.836;2022-08-18T15:16:17;27.00;99.90
37300;DHT22;23184;51.902;12.836;2022-08-18T15:18:44;27.00;99.90
37300;DHT22;23184;51.902;12.836;2022-08-18T15:21:10;27.00;99.90
37300;DHT22;23184;51.902;12.836;2022-08-18T15:23:54;27.10;99.90
37300;DHT22;23184;51.902;12.836;2022-08-18T15:26:38;27.10;99.90
37300;DHT22;23184;51.902;12.836;2022-08-18T15:29:05;27.10;99.90
37300;DHT22;23184;51.902;12.836;2022-08-18T15:31:32;27.10;99.90
37300;DHT22;23184;51.902;12.836;2022-08-18T15:33:58;27.20;99.90
37300;DHT22;23184;51.902;12.836;2022-08-18T15:36:24;27.40;99.90
37300;DHT22;23184;51.902;12.836;2022-08-18T15:38:50;27.40;99.90
37300;DHT22;23184;51.902;12.836;2022-08-18T15:41:33;27.40;99.90
37300;DHT22;23184;51.902;12.836;2022-08-18T15:44:00;27.30;99.90
37300;DHT22;23184;51.902;12.836;2022-08-18T15:46:27;27.30;99.90
37300;DHT22;23184;51.902;12.836;2022-08-18T15:48:54;27.30;99.90
37300;DHT22;23184;51.902;12.836;2022-08-18T15:51:19;27.30;99.90
37300;DHT22;23184;51.902;12.836;2022-08-18T15:53:45;27.20;99.90
37300;DHT22;23184;51.902;12.836;2022-08-18T15:56:22;27.20;99.90
37300;DHT22;23184;51.902;12.836;2022-08-18T15:58:49;27.20;99.90
37300;DHT22;23184;51.902;12.836;2022-08-18T16:01:16;27.20;99.90
37300;DHT22;23184;51.902;12.836;2022-08-18T16:03:42;27.10;99.90
37300;DHT22;23184;51.902;12.836;2022-08-18T16:06:12;27.10;99.90
37300;DHT22;23184;51.902;12.836;2022-08-18T16:08:38;27.00;99.90
37300;DHT22;23184;51.902;12.836;2022-08-18T16:11:09;27.00;99.90
37300;DHT22;23184;51.902;12.836;2022-08-18T16:13:35;27.00;99.90
37300;DHT22;23184;51.902;12.836;2022-08-18T16:16:17;27.00;99.90
37300;DHT22;23184;51.902;12.836;2022-08-18T16:18:43;27.00;99.90
37300;DHT22;23184;51.902;12.836;2022-08-18T16:21:12;26.90;99.90
37300;DHT22;23184;51.902;12.836;2022-08-18T16:23:40;26.90;99.90
37300;DHT22;23184;51.902;12.836;2022-08-18T16:26:07;26.90;99.90
37300;DHT22;23184;51.902;12.836;2022-08-18T16:28:33;26.80;99.90
37300;DHT22;23184;51.902;12.836;2022-08-18T16:30:59;26.80;99.90
37300;DHT22;23184;51.902;12.836;2022-08-18T16:33:25;26.70;99.90
37300;DHT22;23184;51.902;12.836;2022-08-18T16:35:51;26.80;99.90
37300;DHT22;23184;51.902;12.836;2022-08-18T16:38:17;26.70;99.90
37300;DHT22;23184;51.902;12.836;2022-08-18T16:40:43;26.70;99.90
37300;DHT22;23184;51.902;12.836;2022-08-18T16:43:08;26.70;99.90
37300;DHT22;23184;51.902;12.836;2022-08-18T16:45:38;26.70;99.90
37300;DHT22;23184;51.902;12.836;2022-08-18T16:48:04;26.70;99.90
37300;DHT22;23184;51.902;12.836;2022-08-18T16:50:32;26.70;99.90
37300;DHT22;23184;51.902;12.836;2022-08-18T16:52:58;26.70;99.90
37300;DHT22;23184;51.902;12.836;2022-08-18T16:55:24;26.70;99.90
37300;DHT22;23184;51.902;12.836;2022-08-18T16:57:49;26.60;99.90
37300;DHT22;23184;51.902;12.836;2022-08-18T17:00:33;26.60;99.90
37300;DHT22;23184;51.902;12.836;2022-08-18T17:03:28;26.60;99.90
37300;DHT22;23184;51.902;12.836;2022-08-18T17:06:15;26.60;99.90
37300;DHT22;23184;51.902;12.836;2022-08-18T17:08:42;26.60;99.90
37300;DHT22;23184;51.902;12.836;2022-08-18T17:11:16;26.50;99.90
37300;DHT22;23184;51.902;12.836;2022-08-18T17:13:43;26.50;99.90
37300;DHT22;23184;51.902;12.836;2022-08-18T17:16:09;26.50;99.90
37300;DHT22;23184;51.902;12.836;2022-08-18T17:18:35;26.40;99.90
37300;DHT22;23184;51.902;12.836;2022-08-18T17:21:05;26.40;99.90
37300;DHT22;23184;51.902;12.836;2022-08-18T17:23:32;26.40;99.90
37300;DHT22;23184;51.902;12.836;2022-08-18T17:25:58;26.40;99.90
37300;DHT22;23184;51.902;12.836;2022-08-18T17:28:43;26.30;99.90
37300;DHT22;23184;51.902;12.836;2022-08-18T17:31:10;26.30;99.90
37300;DHT22;23184;51.902;12.836;2022-08-18T17:33:38;26.30;99.90
37300;DHT22;23184;51.902;12.836;2022-08-18T17:36:07;26.30;99.90
37300;DHT22;23184;51.902;12.836;2022-08-18T17:38:48;26.30;99.90
37300;DHT22;23184;51.902;12.836;2022-08-18T17:41:17;26.30;99.90